Time;durP1;ratioP1;P1;durP2;ratioP2;P2;SDS_P1;SDS_P2;PMS_P1;PMS_P2;Temp;Humidity;BMP_temperature;BMP_pressure;BME280_temperature;BME280_humidity;BME280_pressure;Samples;Min_cycle;Max_cycle;Signal;HPM_P1;HPM_P2
2021/01/20 00:01:55;;;;;;;4.07;1.73;;;;;;;20.40;46.00;98227.78;5059021;28;20118;-78
2021/01/20 00:04:21;;;;;;;4.60;2.05;;;;;;;20.70;45.50;98236.84;5094142;28;20379;-78
2021/01/20 00:06:51;;;;;;;2.42;1.50;;;;;;;20.97;44.38;98230.91;5093984;28;20022;-78
2021/01/20 00:09:17;;;;;;;2.35;1.38;;;;;;;21.13;44.07;98230.00;5094010;28;20024;-80
2021/01/20 00:11:42;;;;;;;2.28;1.60;;;;;;;21.16;43.98;98223.56;5075674;28;20421;-77
2021/01/20 00:14:14;;;;;;;3.70;1.60;;;;;;;20.98;44.54;98224.91;5093903;28;20099;-78
2021/01/20 00:16:39;;;;;;;2.65;1.50;;;;;;;20.83;45.05;98237.66;5093891;28;20032;-78
2021/01/20 00:19:06;;;;;;;7.68;5.93;;;;;;;20.65;44.26;98242.97;5075559;28;20131;-78
2021/01/20 00:21:31;;;;;;;7.07;5.78;;;;;;;20.54;43.78;98237.72;5093595;28;20103;-79
2021/01/20 00:23:57;;;;;;;7.05;5.68;;;;;;;20.34;43.54;98248.97;5075300;28;20028;-78
2021/01/20 00:26:22;;;;;;;6.18;4.90;;;;;;;20.23;43.22;98251.22;5075412;28;20543;-77
2021/01/20 00:28:48;;;;;;;7.20;4.82;;;;;;;20.14;43.20;98262.19;5075296;28;20035;-78
2021/01/20 00:31:14;;;;;;;6.18;4.20;;;;;;;19.94;43.09;98256.75;5093623;28;20119;-79
2021/01/20 00:33:39;;;;;;;9.07;5.07;;;;;;;19.75;43.30;98252.91;5075294;28;20051;-78
2021/01/20 00:36:06;;;;;;;9.73;7.70;;;;;;;19.49;43.90;98249.16;5075262;28;20395;-78
2021/01/20 00:38:32;;;;;;;10.20;8.98;;;;;;;19.53;43.52;98251.84;5093440;28;20028;-79
2021/01/20 00:40:58;;;;;;;11.55;10.25;;;;;;;19.38;43.29;98241.09;5093301;28;20040;-78
2021/01/20 00:43:23;;;;;;;8.82;7.43;;;;;;;19.32;43.26;98242.84;5093306;28;20059;-78
2021/01/20 00:45:49;;;;;;;8.68;7.55;;;;;;;19.29;43.18;98243.72;5093364;28;20028;-79
2021/01/20 00:48:15;;;;;;;7.30;6.50;;;;;;;19.26;43.25;98239.00;5093365;28;20052;-78
2021/01/20 00:50:40;;;;;;;8.55;6.55;;;;;;;19.24;43.12;98244.22;5093214;28;20028;-79
2021/01/20 00:53:06;;;;;;;7.57;6.30;;;;;;;19.13;43.38;98246.47;5075110;28;20069;-78
2021/01/20 00:55:32;;;;;;;7.35;5.65;;;;;;;18.94;43.61;98245.28;5093194;28;20036;-79
2021/01/20 00:57:57;;;;;;;7.85;5.28;;;;;;;18.71;43.89;98248.97;5075060;28;20113;-79
2021/01/20 01:00:23;;;;;;;7.13;5.38;;;;;;;18.58;43.93;98248.00;5093111;28;20032;-78
2021/01/20 01:02:50;;;;;;;6.90;5.75;;;;;;;18.80;43.05;98246.38;5074954;28;20032;-79
2021/01/20 01:05:16;;;;;;;8.13;6.18;;;;;;;18.85;42.81;98251.41;5092817;28;20024;-78
2021/01/20 01:07:42;;;;;;;7.25;5.95;;;;;;;18.79;42.75;98244.06;5093080;28;20036;-79
2021/01/20 01:10:09;;;;;;;8.13;6.78;;;;;;;18.83;42.54;98244.75;5093393;28;20035;-79
2021/01/20 01:12:35;;;;;;;9.07;7.18;;;;;;;18.68;42.76;98236.00;5092701;28;20055;-79
2021/01/20 01:15:01;;;;;;;8.02;6.57;;;;;;;18.70;42.83;98241.88;5092883;28;20046;-79
2021/01/20 01:17:27;;;;;;;9.82;7.03;;;;;;;18.66;43.06;98245.91;5074791;28;20039;-79
2021/01/20 01:19:52;;;;;;;7.00;5.90;;;;;;;18.57;43.05;98246.47;5092705;28;20032;-79
2021/01/20 01:22:18;;;;;;;9.80;7.47;;;;;;;18.57;43.14;98243.69;5074526;28;20127;-80
2021/01/20 01:24:43;;;;;;;16.48;13.85;;;;;;;18.51;42.97;98251.72;5092871;28;20032;-79
2021/01/20 01:27:09;;;;;;;18.52;15.93;;;;;;;18.58;42.55;98243.25;5074788;28;20048;-80
2021/01/20 01:29:35;;;;;;;15.02;13.43;;;;;;;18.48;42.63;98240.72;5074562;28;20414;-78
2021/01/20 01:32:00;;;;;;;14.07;11.52;;;;;;;18.35;42.49;98239.81;5092837;28;20467;-78
2021/01/20 01:34:26;;;;;;;14.30;12.32;;;;;;;18.44;42.55;98234.47;5074659;28;20479;-79
2021/01/20 01:36:51;;;;;;;14.65;11.93;;;;;;;18.31;42.34;98231.59;5074728;28;20040;-78
2021/01/20 01:39:17;;;;;;;10.38;8.18;;;;;;;18.19;42.58;98226.69;5092612;28;20028;-79
2021/01/20 01:41:43;;;;;;;7.22;5.65;;;;;;;18.21;42.32;98222.31;5075974;28;20118;-80
2021/01/20 01:44:08;;;;;;;7.03;5.15;;;;;;;18.17;42.56;98221.59;5078727;28;20107;-79
2021/01/20 01:46:34;;;;;;;9.15;7.05;;;;;;;18.14;42.42;98211.41;5096842;28;20028;-79
2021/01/20 01:49:00;;;;;;;12.38;9.13;;;;;;;18.15;42.57;98221.25;5096855;28;20028;-79
2021/01/20 01:51:26;;;;;;;13.95;9.35;;;;;;;17.91;42.85;98214.19;5096770;28;20032;-80
2021/01/20 01:53:53;;;;;;;10.95;8.48;;;;;;;18.08;42.35;98212.31;5096748;28;20095;-79
2021/01/20 01:56:19;;;;;;;8.77;7.70;;;;;;;17.98;42.53;98211.28;5078723;28;20028;-78
2021/01/20 01:58:49;;;;;;;7.90;6.65;;;;;;;17.94;42.47;98208.59;5096630;28;20524;-78
2021/01/20 02:01:16;;;;;;;8.25;6.80;;;;;;;17.97;42.67;98212.50;5096586;28;20085;-79
2021/01/20 02:03:41;;;;;;;12.63;11.10;;;;;;;17.65;43.14;98224.88;5096382;28;20028;-78
2021/01/20 02:06:07;;;;;;;15.90;13.60;;;;;;;17.62;43.22;98220.22;5096385;28;20028;-80
2021/01/20 02:08:34;;;;;;;18.55;16.70;;;;;;;17.68;43.02;98226.81;5096365;28;20035;-78
2021/01/20 02:11:10;;;;;;;22.30;19.90;;;;;;;17.59;43.25;98223.81;5096188;28;20028;-79
2021/01/20 02:14:08;;;;;;;19.35;17.40;;;;;;;17.48;43.00;98218.47;5096430;28;20039;-79
2021/01/20 02:16:40;;;;;;;16.30;14.65;;;;;;;17.42;43.08;98231.19;5062360;28;20031;-79
2021/01/20 02:19:09;;;;;;;15.55;14.02;;;;;;;17.46;43.19;98229.16;5096252;28;20082;-78
2021/01/20 02:21:35;;;;;;;13.13;11.27;;;;;;;17.32;43.40;98220.34;5077936;28;20028;-79
2021/01/20 02:24:05;;;;;;;12.48;11.18;;;;;;;17.36;42.95;98221.03;5096193;28;20027;-78
2021/01/20 02:26:49;;;;;;;;;;;;;;;17.18;43.56;98219.34;5096858;28;20421;-79
2021/01/20 02:29:25;;;;;;;15.07;12.07;;;;;;;17.35;43.11;98216.72;5096110;28;20002;-79
2021/01/20 02:31:53;;;;;;;12.43;10.55;;;;;;;17.28;43.30;98227.88;5095995;28;20028;-79
2021/01/20 02:34:21;;;;;;;7.38;6.22;;;;;;;17.21;43.47;98220.47;5095904;28;20046;-78
2021/01/20 02:36:48;;;;;;;6.00;4.85;;;;;;;17.30;43.52;98217.19;5077815;28;20031;-78
2021/01/20 02:39:15;;;;;;;7.25;5.80;;;;;;;17.19;43.38;98212.63;5077673;28;20107;-78
2021/01/20 02:41:42;;;;;;;6.40;5.20;;;;;;;17.08;43.61;98217.53;5095691;28;20421;-78
2021/01/20 02:44:08;;;;;;;9.32;7.60;;;;;;;17.11;43.19;98218.69;5095700;28;20497;-79
2021/01/20 02:46:34;;;;;;;8.45;7.18;;;;;;;17.24;43.26;98214.16;5095739;28;20028;-79
2021/01/20 02:49:00;;;;;;;10.48;8.55;;;;;;;17.20;43.05;98218.94;5095604;28;20105;-78
2021/01/20 02:51:51;;;;;;;9.32;7.22;;;;;;;17.04;43.34;98207.75;5077500;28;20627;-79
2021/01/20 02:54:19;;;;;;;9.13;7.00;;;;;;;17.15;43.22;98208.34;5095507;28;20025;-79
2021/01/20 02:56:47;;;;;;;10.98;9.82;;;;;;;16.92;43.51;98207.13;5095558;28;20409;-78
2021/01/20 02:59:14;;;;;;;15.60;12.93;;;;;;;16.98;43.67;98210.19;5077286;28;20024;-78
2021/01/20 03:01:45;;;;;;;17.40;15.55;;;;;;;16.91;43.68;98211.06;5095409;28;20047;-79
2021/01/20 03:04:16;;;;;;;13.55;10.63;;;;;;;16.76;43.96;98215.22;5095400;28;20509;-79
2021/01/20 03:06:45;;;;;;;12.13;10.35;;;;;;;16.80;44.02;98215.19;5095311;28;20406;-78
2021/01/20 03:09:12;;;;;;;14.02;12.05;;;;;;;16.71;44.07;98212.97;5094241;28;20035;-77
2021/01/20 03:11:52;;;;;;;9.15;8.20;;;;;;;16.84;43.69;98210.41;5070227;28;20076;-79
2021/01/20 03:14:20;;;;;;;7.38;6.43;;;;;;;17.05;43.22;98214.81;5055040;28;20028;-79
2021/01/20 03:16:46;;;;;;;8.70;6.15;;;;;;;17.06;43.22;98210.88;5053684;28;20082;-80
2021/01/20 03:19:11;;;;;;;7.00;6.18;;;;;;;17.06;43.07;98219.91;5053638;28;20024;-79
2021/01/20 03:21:37;;;;;;;8.88;7.78;;;;;;;16.99;43.09;98219.25;5054696;28;20017;-79
2021/01/20 03:24:03;;;;;;;6.30;5.20;;;;;;;16.93;43.33;98216.19;5054792;28;20024;-79
2021/01/20 03:26:28;;;;;;;5.93;4.90;;;;;;;16.73;43.71;98215.28;5036935;28;20110;-79
2021/01/20 03:28:54;;;;;;;5.53;4.15;;;;;;;16.82;43.41;98216.34;5054756;28;20028;-79
2021/01/20 03:31:20;;;;;;;4.53;3.40;;;;;;;16.93;43.34;98213.44;5053424;28;20132;-79
2021/01/20 03:33:46;;;;;;;4.05;2.75;;;;;;;16.97;43.02;98210.63;5054632;28;20032;-79
2021/01/20 03:36:11;;;;;;;4.63;3.05;;;;;;;16.98;43.15;98210.19;5053387;28;20029;-79
2021/01/20 03:38:37;;;;;;;5.22;3.83;;;;;;;16.58;43.73;98218.22;5070043;28;20091;-78
2021/01/20 03:41:03;;;;;;;5.43;4.03;;;;;;;16.46;44.04;98224.25;5054519;28;20442;-79
2021/01/20 03:43:28;;;;;;;5.68;4.10;;;;;;;16.47;44.10;98227.81;5054321;28;20029;-79
2021/01/20 03:45:54;;;;;;;4.68;3.63;;;;;;;16.44;44.13;98223.91;5069756;28;20120;-76
2021/01/20 03:48:20;;;;;;;7.85;5.60;;;;;;;16.38;44.17;98222.78;5054437;28;20484;-79
2021/01/20 03:50:45;;;;;;;6.88;6.18;;;;;;;16.38;44.09;98220.03;5054295;28;20051;-79
2021/01/20 03:53:11;;;;;;;9.75;8.25;;;;;;;16.16;44.72;98224.25;5054179;28;20029;-78
2021/01/20 03:55:37;;;;;;;10.82;9.70;;;;;;;16.26;44.50;98220.59;5054110;28;20021;-77
2021/01/20 03:58:02;;;;;;;13.25;10.45;;;;;;;16.34;43.95;98222.84;5052920;28;20025;-78
2021/01/20 04:00:28;;;;;;;17.23;13.82;;;;;;;16.34;44.19;98227.59;5054137;28;20502;-78
2021/01/20 04:02:54;;;;;;;17.38;14.65;;;;;;;16.38;44.33;98228.31;5052682;28;20068;-77
2021/01/20 04:05:19;;;;;;;24.35;20.00;;;;;;;16.41;44.25;98224.75;5052229;28;20036;-79
2021/01/20 04:07:45;;;;;;;20.00;17.80;;;;;;;16.26;44.60;98226.88;5054025;28;20472;-79
2021/01/20 04:10:11;;;;;;;26.08;21.70;;;;;;;16.29;44.16;98228.03;5053817;28;20388;-78
2021/01/20 04:12:38;;;;;;;27.10;23.60;;;;;;;16.31;44.26;98233.91;5084193;28;20040;-78
2021/01/20 04:15:09;;;;;;;23.02;20.55;;;;;;;16.33;43.95;98224.03;5094052;28;20035;-78
2021/01/20 04:17:35;;;;;;;14.07;12.38;;;;;;;16.33;44.08;98228.78;5075815;28;20068;-80
2021/01/20 04:20:01;;;;;;;8.98;7.70;;;;;;;16.34;43.92;98233.09;5093901;28;20025;-79
2021/01/20 04:22:27;;;;;;;7.18;5.63;;;;;;;16.34;44.09;98230.34;5093863;28;20107;-78
2021/01/20 04:24:52;;;;;;;4.47;3.25;;;;;;;16.24;44.04;98233.97;5093770;28;20055;-79
2021/01/20 04:27:18;;;;;;;4.32;3.45;;;;;;;16.26;44.03;98231.63;5075648;28;20113;-78
2021/01/20 04:29:44;;;;;;;3.80;2.88;;;;;;;16.21;43.97;98238.34;5075672;28;20054;-79
2021/01/20 04:32:10;;;;;;;4.00;2.80;;;;;;;16.24;43.77;98233.97;5093386;28;20034;-79
2021/01/20 04:34:36;;;;;;;4.20;3.10;;;;;;;16.28;43.72;98231.97;5075507;28;20073;-78
2021/01/20 04:37:02;;;;;;;4.22;3.47;;;;;;;16.64;43.16;98240.59;5093665;28;20024;-78
2021/01/20 04:39:28;;;;;;;4.63;3.70;;;;;;;16.72;42.62;98233.03;5075317;28;20073;-78
2021/01/20 04:41:53;;;;;;;4.50;3.45;;;;;;;16.65;42.79;98226.38;5093448;28;20051;-78
2021/01/20 04:44:19;;;;;;;6.03;4.05;;;;;;;16.63;42.62;98226.03;5093438;28;20025;-80
2021/01/20 04:46:47;;;;;;;5.35;4.30;;;;;;;16.68;42.57;98238.56;5093494;28;20386;-78
2021/01/20 04:49:16;;;;;;;4.25;3.38;;;;;;;16.69;42.44;98242.91;5093319;28;20028;-77
2021/01/20 04:51:43;;;;;;;5.77;4.43;;;;;;;16.71;42.62;98245.28;5093307;28;20052;-79
2021/01/20 04:54:12;;;;;;;9.25;4.82;;;;;;;16.70;42.54;98229.91;5075144;28;20375;-76
2021/01/20 04:56:39;;;;;;;5.30;3.83;;;;;;;16.69;42.47;98229.13;5093182;28;20065;-78
2021/01/20 04:59:05;;;;;;;5.53;3.83;;;;;;;16.53;42.87;98226.16;5075054;28;20028;-77
2021/01/20 05:01:32;;;;;;;5.20;3.63;;;;;;;16.58;42.55;98228.47;5093024;28;20053;-78
2021/01/20 05:04:02;;;;;;;5.47;4.25;;;;;;;16.53;42.45;98229.69;5092905;28;20055;-76
2021/01/20 05:06:28;;;;;;;4.65;3.50;;;;;;;16.65;42.66;98233.88;5093445;28;20024;-76
2021/01/20 05:08:55;;;;;;;4.45;3.40;;;;;;;16.60;42.69;98224.09;5093067;28;20028;-77
2021/01/20 05:11:40;;;;;;;6.72;3.92;;;;;;;16.58;42.63;98223.72;5092871;28;20036;-78
2021/01/20 05:14:15;;;;;;;4.55;3.30;;;;;;;16.62;42.35;98223.66;5092926;28;20031;-78
2021/01/20 05:16:49;;;;;;;4.63;3.55;;;;;;;16.65;42.31;98209.84;5073805;28;20028;-78
2021/01/20 05:19:14;;;;;;;5.20;4.18;;;;;;;16.65;42.58;98215.38;5074615;28;20051;-76
2021/01/20 05:21:40;;;;;;;4.85;3.42;;;;;;;16.46;43.05;98216.00;5092782;28;20052;-76
2021/01/20 05:24:22;;;;;;;5.88;4.03;;;;;;;16.64;42.62;98226.81;5092864;28;20076;-77
2021/01/20 05:26:49;;;;;;;5.32;3.80;;;;;;;16.71;42.56;98214.94;5074802;28;20032;-76
2021/01/20 05:29:16;;;;;;;15.30;3.80;;;;;;;16.75;42.38;98230.22;5092624;28;20058;-76
2021/01/20 05:31:42;;;;;;;7.97;4.25;;;;;;;16.45;43.14;98228.22;5092667;28;20024;-77
2021/01/20 05:34:32;;;;;;;6.65;4.05;;;;;;;16.23;43.27;98222.19;5092698;28;20471;-77
2021/01/20 05:37:06;;;;;;;5.85;4.40;;;;;;;16.54;42.94;98219.44;5092780;28;20548;-77
2021/01/20 05:39:33;;;;;;;5.95;4.05;;;;;;;16.40;43.32;98209.41;5092533;28;20040;-76
2021/01/20 05:42:02;;;;;;;4.72;3.60;;;;;;;16.68;42.71;98219.25;5074391;28;20035;-76
2021/01/20 05:44:28;;;;;;;5.70;3.70;;;;;;;16.40;43.46;98214.09;5074462;28;20103;-79
2021/01/20 05:46:54;;;;;;;5.93;4.35;;;;;;;16.29;43.44;98214.25;5092566;28;20111;-76
2021/01/20 05:49:24;;;;;;;6.55;4.38;;;;;;;16.23;43.84;98210.38;5092506;28;20074;-79
2021/01/20 05:51:52;;;;;;;4.63;3.70;;;;;;;16.26;43.60;98212.34;5074499;28;20090;-76
2021/01/20 05:54:32;;;;;;;5.07;3.88;;;;;;;16.25;43.63;98206.03;5074417;28;20028;-77
2021/01/20 05:57:10;;;;;;;4.85;3.88;;;;;;;15.94;44.41;98210.69;5092505;28;20031;-77
2021/01/20 05:59:36;;;;;;;5.68;4.47;;;;;;;16.21;43.78;98201.75;5092462;28;20024;-78
2021/01/20 06:02:03;;;;;;;6.55;4.30;;;;;;;16.15;43.90;98204.19;5092396;28;20063;-77
2021/01/20 06:04:30;;;;;;;7.07;4.35;;;;;;;16.19;43.90;98201.41;5092442;28;20385;-77
2021/01/20 06:06:57;;;;;;;7.00;5.00;;;;;;;16.09;44.28;98203.84;5074111;28;20067;-78
2021/01/20 06:09:25;;;;;;;5.53;4.13;;;;;;;16.26;43.79;98198.56;5092457;28;20083;-75
2021/01/20 06:11:51;;;;;;;8.18;5.35;;;;;;;16.25;43.81;98202.50;5092156;28;20072;-76
2021/01/20 06:14:17;;;;;;;5.28;4.28;;;;;;;16.26;43.97;98201.31;5074180;28;20024;-76
2021/01/20 06:16:45;;;;;;;8.40;5.35;;;;;;;16.23;43.98;98205.66;5092211;28;20394;-75
2021/01/20 06:19:16;;;;;;;7.38;5.18;;;;;;;16.45;43.11;98203.41;5092251;28;20440;-75
2021/01/20 06:21:44;;;;;;;10.20;5.65;;;;;;;16.21;43.58;98199.00;5092178;28;20048;-75
2021/01/20 06:24:32;;;;;;;7.20;5.35;;;;;;;16.07;43.80;98202.69;5092210;28;20095;-75
2021/01/20 06:27:07;;;;;;;6.72;5.03;;;;;;;16.10;43.89;98199.13;5074241;28;20107;-74
2021/01/20 06:29:38;;;;;;;7.90;5.60;;;;;;;16.04;43.74;98187.00;5096100;28;20494;-75
2021/01/20 06:32:08;;;;;;;8.32;4.90;;;;;;;16.15;44.09;98182.13;5095611;28;20090;-75
2021/01/20 06:34:34;;;;;;;;;;;;;;;16.24;43.60;98187.16;5078070;28;20020;-75
2021/01/20 06:37:00;;;;;;;8.05;5.20;;;;;;;16.32;43.21;98181.16;5077743;28;19912;-75
2021/01/20 06:39:26;;;;;;;8.43;5.75;;;;;;;16.24;43.49;98176.91;5095823;28;20073;-75
2021/01/20 06:41:52;;;;;;;7.90;5.43;;;;;;;16.33;43.39;98176.44;5077493;28;20035;-76
2021/01/20 06:44:18;;;;;;;7.90;4.80;;;;;;;16.13;43.71;98178.25;5077449;28;20024;-78
2021/01/20 06:46:55;;;;;;;10.02;6.30;;;;;;;15.97;44.34;98170.56;5077707;28;20035;-77
2021/01/20 06:49:22;;;;;;;6.35;5.22;;;;;;;16.08;43.84;98176.72;5077387;28;20500;-76
2021/01/20 06:52:06;;;;;;;13.77;6.25;;;;;;;16.17;43.73;98166.00;5077320;28;20027;-76
2021/01/20 06:54:37;;;;;;;7.32;5.43;;;;;;;16.40;43.25;98157.03;5095452;28;20043;-75
2021/01/20 06:57:25;;;;;;;8.52;5.35;;;;;;;16.48;42.98;98144.72;5077208;28;20030;-75
2021/01/20 07:00:09;;;;;;;8.38;5.60;;;;;;;16.39;43.01;98125.16;5077041;28;20024;-75
2021/01/20 07:02:35;;;;;;;10.68;6.35;;;;;;;16.28;43.33;98141.84;5095302;28;20024;-78
2021/01/20 07:05:03;;;;;;;11.98;7.03;;;;;;;15.65;44.79;98157.94;5077174;28;20475;-75
2021/01/20 07:07:52;;;;;;;13.68;6.95;;;;;;;15.77;44.45;98145.59;5095245;28;20020;-76
2021/01/20 07:10:21;;;;;;;8.77;6.05;;;;;;;16.08;43.76;98147.19;5095302;28;20052;-78
2021/01/20 07:13:13;;;;;;;11.98;6.60;;;;;;;16.23;43.15;98147.00;5095046;28;20048;-76
2021/01/20 07:15:40;;;;;;;10.57;6.05;;;;;;;16.08;43.48;98141.69;5077053;28;20020;-76
2021/01/20 07:18:08;;;;;;;8.25;6.03;;;;;;;16.03;43.80;98141.38;5076957;28;20035;-76
2021/01/20 07:20:34;;;;;;;8.32;5.78;;;;;;;15.99;43.88;98135.91;5060124;28;20467;-77
2021/01/20 07:23:00;;;;;;;8.50;5.43;;;;;;;15.95;43.99;98131.66;5076705;28;20028;-79
2021/01/20 07:25:26;;;;;;;9.68;5.65;;;;;;;15.92;43.71;98138.72;5076815;28;20032;-78
2021/01/20 07:27:55;;;;;;;7.82;5.25;;;;;;;15.86;43.70;98136.84;5094895;28;20032;-77
2021/01/20 07:30:21;;;;;;;11.93;5.85;;;;;;;15.93;43.64;98129.28;5094868;28;20478;-79
2021/01/20 07:32:47;;;;;;;9.02;4.80;;;;;;;15.96;43.73;98131.22;5094790;28;20028;-78
2021/01/20 07:35:25;;;;;;;13.55;12.27;;;;;;;15.82;43.75;98117.63;5094781;28;20429;-75
2021/01/20 07:38:05;;;;;;;9.18;5.20;;;;;;;15.71;43.94;98108.69;5102535;28;20043;-76
2021/01/20 07:40:34;;;;;;;10.13;5.32;;;;;;;15.60;44.55;98116.28;5098192;28;20020;-75
2021/01/20 07:43:00;;;;;;;11.50;5.55;;;;;;;15.53;44.53;98106.13;5094563;28;20106;-78
2021/01/20 07:45:40;;;;;;;6.35;4.88;;;;;;;15.50;44.46;98127.00;5075660;28;20543;-75
2021/01/20 07:48:07;;;;;;;6.30;3.95;;;;;;;15.53;44.40;98131.66;5092582;28;20012;-75
2021/01/20 07:50:40;;;;;;;7.00;5.13;;;;;;;15.58;44.15;98137.94;5074332;28;20486;-75
2021/01/20 07:53:16;;;;;;;6.93;4.80;;;;;;;15.54;44.04;98133.22;5092899;28;20020;-75
2021/01/20 07:55:43;;;;;;;9.52;4.55;;;;;;;15.55;44.39;98134.78;5092535;28;20035;-75
2021/01/20 07:58:09;;;;;;;8.30;4.43;;;;;;;15.51;44.57;98134.06;5091111;28;20054;-77
2021/01/20 08:00:46;;;;;;;6.40;4.25;;;;;;;15.54;44.25;98121.44;5091410;28;20102;-76
2021/01/20 08:03:12;;;;;;;6.85;4.43;;;;;;;15.60;44.22;98124.53;5073982;28;20034;-77
2021/01/20 08:05:39;;;;;;;6.82;4.30;;;;;;;15.48;44.70;98128.56;5092409;28;20063;-75
2021/01/20 08:08:06;;;;;;;6.85;4.60;;;;;;;15.63;44.26;98123.72;5092542;28;20154;-76
2021/01/20 08:10:31;;;;;;;8.13;5.43;;;;;;;15.59;44.21;98126.50;5075230;28;20167;-76
2021/01/20 08:12:59;;;;;;;8.50;5.20;;;;;;;15.57;44.26;98117.06;5094479;28;20072;-77
2021/01/20 08:15:26;;;;;;;12.35;7.18;;;;;;;15.48;44.64;98115.59;5075858;28;20106;-75
2021/01/20 08:17:56;;;;;;;22.63;20.48;;;;;;;15.48;44.66;98126.59;5093901;28;20547;-75
2021/01/20 08:20:22;;;;;;;19.42;17.48;;;;;;;15.50;44.67;98137.22;5093850;28;20165;-74
2021/01/20 08:22:49;;;;;;;8.75;6.90;;;;;;;15.47;44.76;98129.75;5075139;28;20493;-76
2021/01/20 08:25:19;;;;;;;8.27;5.50;;;;;;;15.62;44.32;98122.16;5093695;28;20495;-76
2021/01/20 08:27:45;;;;;;;7.53;5.43;;;;;;;15.71;44.09;98114.97;5093662;28;20024;-76
2021/01/20 08:30:13;;;;;;;8.45;5.93;;;;;;;15.70;44.06;98112.63;5093540;28;20112;-76
2021/01/20 08:32:54;;;;;;;36.20;32.50;;;;;;;15.62;43.92;98122.16;5093626;28;20025;-75
2021/01/20 08:35:37;;;;;;;13.20;11.90;;;;;;;15.64;43.63;98122.53;5092353;28;20031;-77
2021/01/20 08:38:05;;;;;;;11.98;10.77;;;;;;;15.63;43.92;98115.47;5093498;28;20043;-77
2021/01/20 08:40:31;;;;;;;8.35;6.65;;;;;;;15.50;43.84;98121.47;5093602;28;20555;-77
2021/01/20 08:42:57;;;;;;;26.77;23.92;;;;;;;15.74;43.23;98130.69;5087656;28;20066;-75
2021/01/20 08:45:23;;;;;;;71.80;56.38;;;;;;;15.85;43.04;98119.53;5088563;28;20359;-75
2021/01/20 08:47:57;;;;;;;12.80;7.40;;;;;;;15.91;42.96;98131.66;5089009;28;20059;-75
2021/01/20 08:50:40;;;;;;;12.18;9.50;;;;;;;15.81;42.92;98125.09;5089248;28;20102;-75
2021/01/20 08:53:09;;;;;;;12.15;9.95;;;;;;;15.78;43.16;98114.13;5092717;28;20107;-76
2021/01/20 08:55:50;;;;;;;7.35;4.65;;;;;;;15.88;42.72;98113.22;5092648;28;20025;-76
2021/01/20 08:58:21;;;;;;;10.32;8.43;;;;;;;15.81;42.91;98107.81;5085798;28;20028;-76
2021/01/20 09:00:50;;;;;;;5.65;3.80;;;;;;;15.90;42.54;98110.06;5073831;28;20111;-76
2021/01/20 09:03:21;;;;;;;6.32;5.03;;;;;;;15.80;42.86;98109.78;5091458;28;20067;-76
2021/01/20 09:05:48;;;;;;;6.38;5.28;;;;;;;15.93;42.59;98112.75;5090718;28;20020;-76
2021/01/20 09:08:14;;;;;;;8.45;6.03;;;;;;;16.00;42.47;98112.66;5082188;28;20081;-77
2021/01/20 09:10:43;;;;;;;5.75;4.30;;;;;;;15.89;42.54;98094.72;5086222;28;20028;-86
2021/01/20 09:13:08;;;;;;;4.72;3.45;;;;;;;15.97;42.27;98090.69;5088378;28;20044;-78
2021/01/20 09:15:34;;;;;;;8.90;8.00;;;;;;;15.89;42.42;98087.25;5095019;28;20040;-78
2021/01/20 09:18:00;;;;;;;7.40;6.60;;;;;;;15.84;42.35;98081.41;5091787;28;20387;-78
2021/01/20 09:20:26;;;;;;;11.35;7.85;;;;;;;15.40;43.24;98072.81;5094818;28;20032;-78
2021/01/20 09:22:51;;;;;;;9.80;8.80;;;;;;;15.33;43.32;98070.16;5091000;28;20032;-77
2021/01/20 09:25:17;;;;;;;13.70;12.40;;;;;;;15.52;42.83;98058.56;5092464;28;20065;-77
2021/01/20 09:27:43;;;;;;;18.70;16.90;;;;;;;15.55;42.83;98065.97;5074386;28;20042;-79
2021/01/20 09:30:09;;;;;;;18.40;16.60;;;;;;;15.57;42.54;98064.78;5092187;28;20028;-78
2021/01/20 09:32:36;;;;;;;15.52;13.95;;;;;;;15.49;42.58;98062.13;5073281;28;20064;-78
2021/01/20 09:35:11;;;;;;;16.92;15.27;;;;;;;15.54;42.61;98058.91;5090341;28;20039;-79
2021/01/20 09:37:37;;;;;;;13.68;12.30;;;;;;;15.09;43.74;98046.44;5072956;28;20478;-78
2021/01/20 09:40:16;;;;;;;20.98;19.08;;;;;;;15.28;43.25;98040.34;5078552;28;20028;-80
2021/01/20 09:42:43;;;;;;;22.45;20.35;;;;;;;15.39;43.39;98040.22;5077892;28;20514;-79
2021/01/20 09:45:11;;;;;;;11.77;10.27;;;;;;;15.32;43.50;98040.31;5071800;28;20032;-79
2021/01/20 09:47:37;;;;;;;16.55;14.85;;;;;;;15.26;43.38;98040.78;5088791;28;20170;-78
2021/01/20 09:50:06;;;;;;;18.98;17.08;;;;;;;15.17;43.12;98023.94;5091982;28;20024;-80
2021/01/20 09:52:32;;;;;;;9.85;8.10;;;;;;;15.04;43.67;98030.38;5091223;28;20035;-78
2021/01/20 09:54:57;;;;;;;12.60;9.73;;;;;;;14.81;44.15;98029.03;5073974;28;20036;-79
2021/01/20 09:57:23;;;;;;;36.15;32.58;;;;;;;14.62;44.40;98033.13;5091375;28;20028;-79
2021/01/20 09:59:49;;;;;;;15.63;13.98;;;;;;;14.88;43.92;98028.16;5074262;28;20395;-79
2021/01/20 10:02:15;;;;;;;37.80;28.83;;;;;;;14.61;44.10;98034.31;5092956;28;20028;-79
2021/01/20 10:04:41;;;;;;;13.98;9.40;;;;;;;14.84;44.03;98030.19;5077627;28;20087;-81
2021/01/20 10:07:08;;;;;;;22.23;19.20;;;;;;;14.70;43.99;98031.88;5061528;28;20253;-79
2021/01/20 10:09:37;;;;;;;18.58;16.58;;;;;;;14.42;44.56;98030.09;5094862;28;20066;-80
2021/01/20 10:12:04;;;;;;;25.00;21.27;;;;;;;14.75;43.83;98019.66;5093171;28;20044;-80
2021/01/20 10:14:29;;;;;;;16.98;15.02;;;;;;;14.62;44.10;98019.38;5095201;28;20035;-80
2021/01/20 10:16:55;;;;;;;25.35;22.75;;;;;;;14.66;43.90;98022.06;5077246;28;20028;-82
2021/01/20 10:19:21;;;;;;;17.85;14.15;;;;;;;14.54;44.07;98017.88;5093065;28;20032;-79
2021/01/20 10:21:46;;;;;;;19.42;17.33;;;;;;;14.37;44.32;98013.28;5095659;28;20032;-79
2021/01/20 10:24:12;;;;;;;18.35;14.13;;;;;;;14.09;44.94;98003.28;5078181;28;20031;-80
2021/01/20 10:26:39;;;;;;;20.05;17.20;;;;;;;14.29;44.25;98012.56;5073044;28;20049;-78
2021/01/20 10:29:05;;;;;;;12.15;10.10;;;;;;;14.47;44.06;98011.66;5093274;28;20027;-80
2021/01/20 10:31:37;;;;;;;15.30;11.05;;;;;;;14.35;44.04;98018.38;5099568;28;20056;-81
2021/01/20 10:34:04;;;;;;;13.18;11.80;;;;;;;14.44;44.43;98011.25;5085269;28;20028;-78
2021/01/20 10:36:31;;;;;;;9.10;7.50;;;;;;;14.31;44.59;98023.13;5099011;28;20489;-79
2021/01/20 10:38:57;;;;;;;10.95;9.55;;;;;;;14.27;44.18;98031.38;5105479;28;20035;-79
2021/01/20 10:41:23;;;;;;;11.13;8.07;;;;;;;14.38;44.30;98023.06;5103279;28;20778;-79
2021/01/20 10:43:51;;;;;;;10.93;9.25;;;;;;;14.47;44.18;98028.91;5069618;28;20032;-79
2021/01/20 10:46:17;;;;;;;12.95;11.35;;;;;;;14.55;43.91;98035.91;5073107;28;20038;-78
2021/01/20 10:48:44;;;;;;;11.35;8.25;;;;;;;14.60;44.08;98037.47;5093367;28;20024;-78
2021/01/20 10:51:10;;;;;;;10.07;6.90;;;;;;;14.67;43.78;98037.41;5076755;28;20063;-79
2021/01/20 10:53:40;;;;;;;10.00;7.45;;;;;;;14.69;43.74;98035.81;5093850;28;20086;-78
2021/01/20 10:56:09;;;;;;;10.20;7.75;;;;;;;14.71;44.04;98021.66;5094534;28;20028;-79
2021/01/20 10:58:35;;;;;;;9.43;6.70;;;;;;;14.68;44.07;98019.72;5073479;28;20032;-79
2021/01/20 11:01:02;;;;;;;16.25;14.52;;;;;;;14.68;43.91;98016.97;5093538;28;20261;-80
2021/01/20 11:03:28;;;;;;;22.25;19.88;;;;;;;14.66;43.86;98014.66;5092992;28;20028;-79
2021/01/20 11:05:54;;;;;;;17.45;13.52;;;;;;;14.52;44.08;98020.25;5093541;28;20021;-78
2021/01/20 11:08:20;;;;;;;34.78;30.98;;;;;;;14.37;44.40;98013.28;5093472;28;20024;-79
2021/01/20 11:10:45;;;;;;;10.95;7.93;;;;;;;14.63;43.83;98009.94;5094319;28;20032;-79
2021/01/20 11:13:11;;;;;;;23.90;20.92;;;;;;;14.66;43.50;98016.59;5088983;28;20411;-79
2021/01/20 11:15:38;;;;;;;11.30;8.50;;;;;;;14.61;44.08;98017.81;5092770;28;20505;-81
2021/01/20 11:18:05;;;;;;;13.70;10.95;;;;;;;14.61;43.84;98012.31;5075296;28;20127;-80
2021/01/20 11:20:32;;;;;;;14.90;10.52;;;;;;;14.73;43.96;98013.78;5093857;28;20059;-80
2021/01/20 11:22:58;;;;;;;12.15;9.05;;;;;;;14.80;43.72;98005.47;5089304;28;20399;-80
2021/01/20 11:25:24;;;;;;;27.67;15.05;;;;;;;14.98;43.31;98006.09;5098330;28;20040;-81
2021/01/20 11:27:50;;;;;;;16.05;11.00;;;;;;;14.90;43.56;98006.56;5097918;28;20097;-78
2021/01/20 11:30:19;;;;;;;30.58;27.33;;;;;;;14.83;43.60;98012.13;5079586;28;20028;-81
2021/01/20 11:32:45;;;;;;;21.58;18.90;;;;;;;14.91;43.43;98008.91;5082764;28;20061;-82
2021/01/20 11:35:13;;;;;;;23.05;19.90;;;;;;;14.86;43.74;98003.84;5083827;28;20040;-80